sensor_id;sensor_type;location;lat;lon;timestamp;P1;durP1;ratioP1;P2;durP2;ratioP2
5898;SDS011;2975;50.956;6.962;2022-11-21T00:00:02;16.50;;;3.47;;
5898;SDS011;2975;50.956;6.962;2022-11-21T00:02:29;15.50;;;3.37;;
5898;SDS011;2975;50.956;6.962;2022-11-21T00:04:55;10.47;;;2.87;;
5898;SDS011;2975;50.956;6.962;2022-11-21T00:07:20;12.30;;;2.90;;
5898;SDS011;2975;50.956;6.962;2022-11-21T00:09:46;12.40;;;3.10;;
5898;SDS011;2975;50.956;6.962;2022-11-21T00:12:11;8.47;;;2.83;;
5898;SDS011;2975;50.956;6.962;2022-11-21T00:14:37;8.83;;;2.90;;
5898;SDS011;2975;50.956;6.962;2022-11-21T00:17:02;12.90;;;2.77;;
5898;SDS011;2975;50.956;6.962;2022-11-21T00:19:28;20.33;;;3.77;;
5898;SDS011;2975;50.956;6.962;2022-11-21T00:21:53;13.30;;;2.50;;
5898;SDS011;2975;50.956;6.962;2022-11-21T00:24:19;12.33;;;2.80;;
5898;SDS011;2975;50.956;6.962;2022-11-21T00:26:44;14.50;;;3.10;;
5898;SDS011;2975;50.956;6.962;2022-11-21T00:29:10;12.23;;;2.73;;
5898;SDS011;2975;50.956;6.962;2022-11-21T00:31:35;17.47;;;3.00;;
5898;SDS011;2975;50.956;6.962;2022-11-21T00:34:01;22.53;;;4.13;;
5898;SDS011;2975;50.956;6.962;2022-11-21T00:36:27;12.47;;;3.53;;
5898;SDS011;2975;50.956;6.962;2022-11-21T00:38:52;12.20;;;3.03;;
5898;SDS011;2975;50.956;6.962;2022-11-21T00:41:18;11.47;;;2.60;;
5898;SDS011;2975;50.956;6.962;2022-11-21T00:43:43;12.00;;;2.97;;
5898;SDS011;2975;50.956;6.962;2022-11-21T00:46:09;17.37;;;3.33;;
5898;SDS011;2975;50.956;6.962;2022-11-21T00:48:34;14.17;;;3.43;;
5898;SDS011;2975;50.956;6.962;2022-11-21T00:51:00;20.00;;;3.63;;
5898;SDS011;2975;50.956;6.962;2022-11-21T00:53:26;12.93;;;2.80;;
5898;SDS011;2975;50.956;6.962;2022-11-21T00:55:52;14.70;;;2.90;;
5898;SDS011;2975;50.956;6.962;2022-11-21T00:58:17;17.67;;;4.50;;
5898;SDS011;2975;50.956;6.962;2022-11-21T01:00:43;14.00;;;2.80;;
5898;SDS011;2975;50.956;6.962;2022-11-21T01:03:09;13.33;;;2.50;;
5898;SDS011;2975;50.956;6.962;2022-11-21T01:05:34;9.80;;;2.60;;
5898;SDS011;2975;50.956;6.962;2022-11-21T01:08:00;13.17;;;3.20;;
5898;SDS011;2975;50.956;6.962;2022-11-21T01:10:25;19.30;;;4.60;;
5898;SDS011;2975;50.956;6.962;2022-11-21T01:12:51;26.07;;;3.87;;
5898;SDS011;2975;50.956;6.962;2022-11-21T01:15:16;12.60;;;2.77;;
5898;SDS011;2975;50.956;6.962;2022-11-21T01:17:42;11.83;;;3.43;;
5898;SDS011;2975;50.956;6.962;2022-11-21T01:20:08;12.77;;;2.60;;
5898;SDS011;2975;50.956;6.962;2022-11-21T01:22:34;18.33;;;3.13;;
5898;SDS011;2975;50.956;6.962;2022-11-21T01:24:59;12.13;;;2.97;;
5898;SDS011;2975;50.956;6.962;2022-11-21T01:27:25;15.90;;;2.80;;
5898;SDS011;2975;50.956;6.962;2022-11-21T01:29:50;9.50;;;2.70;;
5898;SDS011;2975;50.956;6.962;2022-11-21T01:32:16;12.83;;;2.90;;
5898;SDS011;2975;50.956;6.962;2022-11-21T01:34:42;15.07;;;2.97;;
5898;SDS011;2975;50.956;6.962;2022-11-21T01:37:08;11.53;;;2.83;;
5898;SDS011;2975;50.956;6.962;2022-11-21T01:39:33;16.17;;;3.23;;
5898;SDS011;2975;50.956;6.962;2022-11-21T01:41:59;14.30;;;2.40;;
5898;SDS011;2975;50.956;6.962;2022-11-21T01:44:26;12.67;;;2.93;;
5898;SDS011;2975;50.956;6.962;2022-11-21T01:47:10;13.40;;;2.90;;
5898;SDS011;2975;50.956;6.962;2022-11-21T01:49:36;15.30;;;4.00;;
5898;SDS011;2975;50.956;6.962;2022-11-21T01:52:08;14.67;;;2.83;;
5898;SDS011;2975;50.956;6.962;2022-11-21T02:00:09;14.73;;;2.60;;
5898;SDS011;2975;50.956;6.962;2022-11-21T02:02:38;14.30;;;2.57;;
5898;SDS011;2975;50.956;6.962;2022-11-21T02:05:06;12.97;;;3.07;;
5898;SDS011;2975;50.956;6.962;2022-11-21T02:07:37;8.87;;;2.80;;
5898;SDS011;2975;50.956;6.962;2022-11-21T02:10:07;9.00;;;3.20;;
5898;SDS011;2975;50.956;6.962;2022-11-21T02:12:38;11.37;;;3.87;;
5898;SDS011;2975;50.956;6.962;2022-11-21T02:15:08;15.97;;;4.23;;
5898;SDS011;2975;50.956;6.962;2022-11-21T02:17:34;16.53;;;3.33;;
5898;SDS011;2975;50.956;6.962;2022-11-21T02:20:04;16.57;;;2.87;;
5898;SDS011;2975;50.956;6.962;2022-11-21T02:22:44;14.27;;;3.50;;
5898;SDS011;2975;50.956;6.962;2022-11-21T02:25:17;9.77;;;2.67;;
5898;SDS011;2975;50.956;6.962;2022-11-21T02:27:45;8.43;;;2.50;;
5898;SDS011;2975;50.956;6.962;2022-11-21T02:30:14;14.83;;;3.13;;
5898;SDS011;2975;50.956;6.962;2022-11-21T02:32:42;15.73;;;2.63;;
5898;SDS011;2975;50.956;6.962;2022-11-21T02:35:11;9.67;;;2.97;;
5898;SDS011;2975;50.956;6.962;2022-11-21T02:37:38;11.53;;;2.73;;
5898;SDS011;2975;50.956;6.962;2022-11-21T02:40:09;9.03;;;2.50;;
5898;SDS011;2975;50.956;6.962;2022-11-21T02:42:45;16.33;;;2.33;;
5898;SDS011;2975;50.956;6.962;2022-11-21T02:45:34;9.57;;;2.23;;
5898;SDS011;2975;50.956;6.962;2022-11-21T02:48:05;6.67;;;2.10;;
5898;SDS011;2975;50.956;6.962;2022-11-21T02:50:32;7.83;;;2.07;;
5898;SDS011;2975;50.956;6.962;2022-11-21T02:53:00;9.37;;;2.30;;
5898;SDS011;2975;50.956;6.962;2022-11-21T02:55:27;9.20;;;2.97;;
5898;SDS011;2975;50.956;6.962;2022-11-21T02:57:53;14.30;;;2.50;;
5898;SDS011;2975;50.956;6.962;2022-11-21T03:00:19;10.20;;;2.90;;
5898;SDS011;2975;50.956;6.962;2022-11-21T03:02:45;9.80;;;2.07;;
5898;SDS011;2975;50.956;6.962;2022-11-21T03:05:12;9.83;;;2.00;;
5898;SDS011;2975;50.956;6.962;2022-11-21T03:07:39;8.73;;;2.30;;
5898;SDS011;2975;50.956;6.962;2022-11-21T03:10:05;9.83;;;2.07;;
5898;SDS011;2975;50.956;6.962;2022-11-21T03:12:31;9.23;;;1.93;;
5898;SDS011;2975;50.956;6.962;2022-11-21T03:14:59;8.33;;;2.17;;
5898;SDS011;2975;50.956;6.962;2022-11-21T03:17:24;5.33;;;2.07;;
5898;SDS011;2975;50.956;6.962;2022-11-21T03:19:50;5.27;;;2.33;;
5898;SDS011;2975;50.956;6.962;2022-11-21T03:22:16;10.53;;;2.03;;
5898;SDS011;2975;50.956;6.962;2022-11-21T03:24:41;8.30;;;2.30;;
5898;SDS011;2975;50.956;6.962;2022-11-21T03:27:07;9.70;;;2.07;;
5898;SDS011;2975;50.956;6.962;2022-11-21T03:29:32;9.10;;;2.00;;
5898;SDS011;2975;50.956;6.962;2022-11-21T03:31:58;5.77;;;1.80;;
5898;SDS011;2975;50.956;6.962;2022-11-21T03:34:24;11.10;;;2.23;;
5898;SDS011;2975;50.956;6.962;2022-11-21T03:36:50;8.90;;;2.50;;
5898;SDS011;2975;50.956;6.962;2022-11-21T03:39:15;7.23;;;2.03;;
5898;SDS011;2975;50.956;6.962;2022-11-21T03:41:41;5.57;;;2.10;;
5898;SDS011;2975;50.956;6.962;2022-11-21T03:44:08;11.37;;;2.53;;
5898;SDS011;2975;50.956;6.962;2022-11-21T03:46:36;9.10;;;2.57;;
5898;SDS011;2975;50.956;6.962;2022-11-21T03:49:06;12.53;;;2.43;;
5898;SDS011;2975;50.956;6.962;2022-11-21T03:51:32;6.13;;;2.30;;
5898;SDS011;2975;50.956;6.962;2022-11-21T03:53:58;6.13;;;2.30;;
5898;SDS011;2975;50.956;6.962;2022-11-21T03:56:24;8.37;;;2.17;;
5898;SDS011;2975;50.956;6.962;2022-11-21T03:58:50;5.47;;;1.90;;
5898;SDS011;2975;50.956;6.962;2022-11-21T04:01:16;4.10;;;1.50;;
5898;SDS011;2975;50.956;6.962;2022-11-21T04:03:43;6.43;;;1.90;;
5898;SDS011;2975;50.956;6.962;2022-11-21T04:06:10;15.23;;;3.33;;
5898;SDS011;2975;50.956;6.962;2022-11-21T04:08:37;10.27;;;2.10;;
5898;SDS011;2975;50.956;6.962;2022-11-21T04:11:03;7.23;;;2.10;;
5898;SDS011;2975;50.956;6.962;2022-11-21T04:13:29;11.53;;;2.63;;
5898;SDS011;2975;50.956;6.962;2022-11-21T04:15:55;4.07;;;2.00;;
5898;SDS011;2975;50.956;6.962;2022-11-21T04:18:21;10.63;;;2.50;;
5898;SDS011;2975;50.956;6.962;2022-11-21T04:20:46;9.57;;;2.40;;
5898;SDS011;2975;50.956;6.962;2022-11-21T04:23:12;8.30;;;2.00;;
5898;SDS011;2975;50.956;6.962;2022-11-21T04:25:57;6.33;;;2.23;;
5898;SDS011;2975;50.956;6.962;2022-11-21T04:28:22;3.73;;;1.57;;
5898;SDS011;2975;50.956;6.962;2022-11-21T04:30:48;4.03;;;1.90;;
5898;SDS011;2975;50.956;6.962;2022-11-21T04:33:14;7.43;;;2.30;;
5898;SDS011;2975;50.956;6.962;2022-11-21T04:35:43;9.17;;;2.27;;
5898;SDS011;2975;50.956;6.962;2022-11-21T04:38:10;6.37;;;2.17;;
5898;SDS011;2975;50.956;6.962;2022-11-21T04:40:36;5.63;;;2.17;;
5898;SDS011;2975;50.956;6.962;2022-11-21T04:43:02;10.67;;;2.53;;
5898;SDS011;2975;50.956;6.962;2022-11-21T04:45:28;6.90;;;2.47;;
5898;SDS011;2975;50.956;6.962;2022-11-21T04:47:54;9.70;;;3.10;;
5898;SDS011;2975;50.956;6.962;2022-11-21T04:50:20;5.60;;;2.53;;
5898;SDS011;2975;50.956;6.962;2022-11-21T04:52:52;4.80;;;2.10;;
5898;SDS011;2975;50.956;6.962;2022-11-21T04:55:20;8.70;;;2.40;;
5898;SDS011;2975;50.956;6.962;2022-11-21T04:57:47;6.97;;;3.03;;
5898;SDS011;2975;50.956;6.962;2022-11-21T05:00:13;10.27;;;2.50;;
5898;SDS011;2975;50.956;6.962;2022-11-21T05:02:40;6.60;;;2.70;;
5898;SDS011;2975;50.956;6.962;2022-11-21T05:05:06;7.33;;;2.70;;
5898;SDS011;2975;50.956;6.962;2022-11-21T05:07:32;8.03;;;3.20;;
5898;SDS011;2975;50.956;6.962;2022-11-21T05:09:57;10.07;;;2.53;;
5898;SDS011;2975;50.956;6.962;2022-11-21T05:12:23;9.73;;;3.20;;
5898;SDS011;2975;50.956;6.962;2022-11-21T05:15:07;7.57;;;2.70;;
5898;SDS011;2975;50.956;6.962;2022-11-21T05:17:33;9.70;;;2.90;;
5898;SDS011;2975;50.956;6.962;2022-11-21T05:19:59;6.00;;;2.67;;
5898;SDS011;2975;50.956;6.962;2022-11-21T05:22:25;9.63;;;3.30;;
5898;SDS011;2975;50.956;6.962;2022-11-21T05:24:50;7.77;;;3.33;;
5898;SDS011;2975;50.956;6.962;2022-11-21T05:27:16;7.87;;;3.33;;
5898;SDS011;2975;50.956;6.962;2022-11-21T05:29:42;8.37;;;3.33;;
5898;SDS011;2975;50.956;6.962;2022-11-21T05:32:07;5.90;;;3.73;;
5898;SDS011;2975;50.956;6.962;2022-11-21T05:34:33;7.67;;;3.03;;
5898;SDS011;2975;50.956;6.962;2022-11-21T05:36:59;10.70;;;3.17;;
5898;SDS011;2975;50.956;6.962;2022-11-21T05:39:25;10.07;;;3.23;;
5898;SDS011;2975;50.956;6.962;2022-11-21T05:41:51;7.77;;;3.30;;
5898;SDS011;2975;50.956;6.962;2022-11-21T05:44:17;9.93;;;5.10;;
5898;SDS011;2975;50.956;6.962;2022-11-21T05:46:43;12.50;;;4.70;;
5898;SDS011;2975;50.956;6.962;2022-11-21T05:49:09;9.70;;;3.87;;
5898;SDS011;2975;50.956;6.962;2022-11-21T05:51:35;13.00;;;4.07;;
5898;SDS011;2975;50.956;6.962;2022-11-21T05:54:00;16.20;;;5.80;;
5898;SDS011;2975;50.956;6.962;2022-11-21T05:56:26;8.97;;;5.23;;
5898;SDS011;2975;50.956;6.962;2022-11-21T05:58:55;8.20;;;3.73;;
5898;SDS011;2975;50.956;6.962;2022-11-21T06:01:22;10.70;;;4.30;;
5898;SDS011;2975;50.956;6.962;2022-11-21T06:04:07;8.03;;;4.30;;
5898;SDS011;2975;50.956;6.962;2022-11-21T06:06:33;11.73;;;4.80;;
5898;SDS011;2975;50.956;6.962;2022-11-21T06:08:59;12.77;;;5.20;;
5898;SDS011;2975;50.956;6.962;2022-11-21T06:11:25;11.53;;;5.67;;
5898;SDS011;2975;50.956;6.962;2022-11-21T06:13:51;11.07;;;6.30;;
5898;SDS011;2975;50.956;6.962;2022-11-21T06:16:18;12.33;;;6.47;;
5898;SDS011;2975;50.956;6.962;2022-11-21T06:18:45;10.93;;;6.90;;
5898;SDS011;2975;50.956;6.962;2022-11-21T06:21:16;9.13;;;6.40;;
5898;SDS011;2975;50.956;6.962;2022-11-21T06:23:44;12.23;;;6.37;;
5898;SDS011;2975;50.956;6.962;2022-11-21T06:26:11;9.73;;;6.40;;
5898;SDS011;2975;50.956;6.962;2022-11-21T06:28:38;12.30;;;6.30;;
5898;SDS011;2975;50.956;6.962;2022-11-21T06:31:06;13.07;;;6.23;;
5898;SDS011;2975;50.956;6.962;2022-11-21T06:33:39;14.43;;;6.30;;
5898;SDS011;2975;50.956;6.962;2022-11-21T06:38:33;12.10;;;6.90;;
5898;SDS011;2975;50.956;6.962;2022-11-21T06:41:02;10.63;;;6.20;;
5898;SDS011;2975;50.956;6.962;2022-11-21T06:43:39;12.73;;;6.60;;
5898;SDS011;2975;50.956;6.962;2022-11-21T06:46:06;12.90;;;6.90;;
5898;SDS011;2975;50.956;6.962;2022-11-21T06:48:32;15.57;;;6.70;;
5898;SDS011;2975;50.956;6.962;2022-11-21T06:51:06;14.50;;;6.40;;
5898;SDS011;2975;50.956;6.962;2022-11-21T06:53:35;10.77;;;7.07;;
5898;SDS011;2975;50.956;6.962;2022-11-21T06:56:01;7.63;;;5.97;;
5898;SDS011;2975;50.956;6.962;2022-11-21T06:58:26;15.30;;;6.30;;
5898;SDS011;2975;50.956;6.962;2022-11-21T07:00:53;12.50;;;7.00;;
5898;SDS011;2975;50.956;6.962;2022-11-21T07:03:19;12.73;;;6.50;;
5898;SDS011;2975;50.956;6.962;2022-11-21T07:05:46;10.67;;;5.73;;
5898;SDS011;2975;50.956;6.962;2022-11-21T07:08:12;11.20;;;6.03;;
5898;SDS011;2975;50.956;6.962;2022-11-21T07:10:37;10.00;;;6.20;;
5898;SDS011;2975;50.956;6.962;2022-11-21T07:13:03;11.23;;;4.87;;
5898;SDS011;2975;50.956;6.962;2022-11-21T07:15:54;9.27;;;4.47;;
5898;SDS011;2975;50.956;6.962;2022-11-21T07:18:24;12.63;;;6.67;;
5898;SDS011;2975;50.956;6.962;2022-11-21T07:20:50;11.37;;;5.53;;
5898;SDS011;2975;50.956;6.962;2022-11-21T07:23:16;7.67;;;4.17;;
5898;SDS011;2975;50.956;6.962;2022-11-21T07:25:42;6.90;;;4.23;;
5898;SDS011;2975;50.956;6.962;2022-11-21T07:28:08;11.53;;;4.20;;
5898;SDS011;2975;50.956;6.962;2022-11-21T07:30:34;9.77;;;4.47;;
5898;SDS011;2975;50.956;6.962;2022-11-21T07:33:01;9.80;;;4.70;;
5898;SDS011;2975;50.956;6.962;2022-11-21T07:35:29;7.30;;;4.40;;
5898;SDS011;2975;50.956;6.962;2022-11-21T07:37:55;6.90;;;3.83;;
5898;SDS011;2975;50.956;6.962;2022-11-21T07:40:20;8.77;;;4.17;;
5898;SDS011;2975;50.956;6.962;2022-11-21T07:42:46;14.87;;;7.33;;
5898;SDS011;2975;50.956;6.962;2022-11-21T07:45:12;9.63;;;4.30;;
5898;SDS011;2975;50.956;6.962;2022-11-21T07:47:39;8.03;;;3.57;;
5898;SDS011;2975;50.956;6.962;2022-11-21T07:50:05;7.60;;;4.27;;
5898;SDS011;2975;50.956;6.962;2022-11-21T07:52:32;7.50;;;4.00;;
5898;SDS011;2975;50.956;6.962;2022-11-21T07:54:58;8.83;;;4.33;;
5898;SDS011;2975;50.956;6.962;2022-11-21T07:57:26;8.93;;;4.00;;
5898;SDS011;2975;50.956;6.962;2022-11-21T07:59:52;9.23;;;4.00;;
5898;SDS011;2975;50.956;6.962;2022-11-21T08:02:18;12.33;;;4.10;;
5898;SDS011;2975;50.956;6.962;2022-11-21T08:04:49;6.40;;;4.20;;
5898;SDS011;2975;50.956;6.962;2022-11-21T08:07:15;9.63;;;3.90;;
5898;SDS011;2975;50.956;6.962;2022-11-21T08:09:41;8.33;;;4.63;;
5898;SDS011;2975;50.956;6.962;2022-11-21T08:12:07;7.43;;;4.00;;
5898;SDS011;2975;50.956;6.962;2022-11-21T08:14:33;8.67;;;4.40;;
5898;SDS011;2975;50.956;6.962;2022-11-21T08:16:59;8.37;;;4.03;;
5898;SDS011;2975;50.956;6.962;2022-11-21T08:19:25;5.83;;;4.13;;
5898;SDS011;2975;50.956;6.962;2022-11-21T08:21:51;7.40;;;4.00;;
5898;SDS011;2975;50.956;6.962;2022-11-21T08:24:17;13.17;;;3.73;;
5898;SDS011;2975;50.956;6.962;2022-11-21T08:26:43;10.13;;;4.07;;
5898;SDS011;2975;50.956;6.962;2022-11-21T08:29:09;9.27;;;4.03;;
5898;SDS011;2975;50.956;6.962;2022-11-21T08:31:36;6.53;;;4.60;;
5898;SDS011;2975;50.956;6.962;2022-11-21T08:34:02;8.93;;;3.77;;
5898;SDS011;2975;50.956;6.962;2022-11-21T08:36:28;7.57;;;4.13;;
5898;SDS011;2975;50.956;6.962;2022-11-21T08:38:54;8.80;;;4.40;;
5898;SDS011;2975;50.956;6.962;2022-11-21T08:41:20;10.80;;;4.77;;
5898;SDS011;2975;50.956;6.962;2022-11-21T08:44:04;4.87;;;3.87;;
5898;SDS011;2975;50.956;6.962;2022-11-21T08:46:31;9.07;;;4.33;;
5898;SDS011;2975;50.956;6.962;2022-11-21T08:49:04;8.73;;;4.40;;
5898;SDS011;2975;50.956;6.962;2022-11-21T08:51:30;5.93;;;5.17;;
5898;SDS011;2975;50.956;6.962;2022-11-21T08:53:56;8.77;;;4.83;;
5898;SDS011;2975;50.956;6.962;2022-11-21T08:56:22;10.07;;;4.67;;
5898;SDS011;2975;50.956;6.962;2022-11-21T08:58:48;9.70;;;4.50;;
5898;SDS011;2975;50.956;6.962;2022-11-21T09:01:13;5.93;;;4.43;;
5898;SDS011;2975;50.956;6.962;2022-11-21T09:03:39;9.10;;;4.70;;
5898;SDS011;2975;50.956;6.962;2022-11-21T09:06:05;10.07;;;4.77;;
5898;SDS011;2975;50.956;6.962;2022-11-21T09:08:30;9.37;;;4.47;;
5898;SDS011;2975;50.956;6.962;2022-11-21T09:10:56;9.50;;;5.23;;
5898;SDS011;2975;50.956;6.962;2022-11-21T09:13:22;10.07;;;4.70;;
5898;SDS011;2975;50.956;6.962;2022-11-21T09:15:48;10.30;;;5.20;;
5898;SDS011;2975;50.956;6.962;2022-11-21T09:18:32;8.77;;;4.63;;
5898;SDS011;2975;50.956;6.962;2022-11-21T09:20:58;7.03;;;5.03;;
5898;SDS011;2975;50.956;6.962;2022-11-21T09:23:23;9.77;;;5.27;;
5898;SDS011;2975;50.956;6.962;2022-11-21T09:25:49;10.43;;;5.07;;
5898;SDS011;2975;50.956;6.962;2022-11-21T09:28:15;9.73;;;5.37;;
5898;SDS011;2975;50.956;6.962;2022-11-21T09:30:40;12.30;;;5.50;;
5898;SDS011;2975;50.956;6.962;2022-11-21T09:33:09;9.47;;;5.70;;
5898;SDS011;2975;50.956;6.962;2022-11-21T09:35:35;8.13;;;5.43;;
5898;SDS011;2975;50.956;6.962;2022-11-21T09:38:01;8.63;;;5.53;;
5898;SDS011;2975;50.956;6.962;2022-11-21T09:40:31;10.73;;;5.77;;
5898;SDS011;2975;50.956;6.962;2022-11-21T09:45:46;6.87;;;4.93;;
5898;SDS011;2975;50.956;6.962;2022-11-21T09:48:26;8.90;;;3.97;;
5898;SDS011;2975;50.956;6.962;2022-11-21T09:51:01;12.93;;;4.60;;
5898;SDS011;2975;50.956;6.962;2022-11-21T09:53:35;7.07;;;4.20;;
5898;SDS011;2975;50.956;6.962;2022-11-21T09:56:05;10.33;;;4.63;;
5898;SDS011;2975;50.956;6.962;2022-11-21T09:58:38;16.60;;;4.20;;
5898;SDS011;2975;50.956;6.962;2022-11-21T10:01:08;9.77;;;4.30;;
5898;SDS011;2975;50.956;6.962;2022-11-21T10:03:39;6.60;;;3.23;;
5898;SDS011;2975;50.956;6.962;2022-11-21T10:06:20;6.37;;;3.70;;
5898;SDS011;2975;50.956;6.962;2022-11-21T10:09:10;6.63;;;3.80;;
5898;SDS011;2975;50.956;6.962;2022-11-21T10:12:10;19.47;;;4.13;;
5898;SDS011;2975;50.956;6.962;2022-11-21T10:17:48;9.37;;;3.40;;
5898;SDS011;2975;50.956;6.962;2022-11-21T10:20:36;9.00;;;4.20;;
5898;SDS011;2975;50.956;6.962;2022-11-21T10:31:23;6.83;;;2.40;;
5898;SDS011;2975;50.956;6.962;2022-11-21T10:33:59;5.53;;;2.17;;
5898;SDS011;2975;50.956;6.962;2022-11-21T10:36:29;6.30;;;2.77;;
5898;SDS011;2975;50.956;6.962;2022-11-21T10:39:23;12.27;;;3.80;;
5898;SDS011;2975;50.956;6.962;2022-11-21T10:42:15;8.80;;;3.20;;
5898;SDS011;2975;50.956;6.962;2022-11-21T10:44:58;17.03;;;3.17;;
5898;SDS011;2975;50.956;6.962;2022-11-21T10:47:40;5.87;;;2.70;;
5898;SDS011;2975;50.956;6.962;2022-11-21T10:53:19;7.10;;;2.20;;
5898;SDS011;2975;50.956;6.962;2022-11-21T10:56:05;6.97;;;1.83;;
5898;SDS011;2975;50.956;6.962;2022-11-21T11:01:05;6.57;;;1.60;;
5898;SDS011;2975;50.956;6.962;2022-11-21T11:03:31;6.10;;;1.80;;
5898;SDS011;2975;50.956;6.962;2022-11-21T11:05:56;4.73;;;1.90;;
5898;SDS011;2975;50.956;6.962;2022-11-21T11:08:22;4.70;;;2.03;;
5898;SDS011;2975;50.956;6.962;2022-11-21T11:11:02;5.17;;;1.90;;
5898;SDS011;2975;50.956;6.962;2022-11-21T11:13:31;1.70;;;1.50;;
5898;SDS011;2975;50.956;6.962;2022-11-21T11:16:04;6.27;;;1.80;;
5898;SDS011;2975;50.956;6.962;2022-11-21T11:18:31;5.80;;;1.73;;
5898;SDS011;2975;50.956;6.962;2022-11-21T11:21:10;6.10;;;1.60;;
5898;SDS011;2975;50.956;6.962;2022-11-21T11:23:44;2.47;;;1.60;;
5898;SDS011;2975;50.956;6.962;2022-11-21T11:28:44;5.30;;;1.20;;
5898;SDS011;2975;50.956;6.962;2022-11-21T11:31:10;5.17;;;1.70;;
5898;SDS011;2975;50.956;6.962;2022-11-21T11:33:37;3.33;;;1.17;;
5898;SDS011;2975;50.956;6.962;2022-11-21T11:36:12;4.27;;;1.30;;
5898;SDS011;2975;50.956;6.962;2022-11-21T11:38:41;2.13;;;1.10;;
5898;SDS011;2975;50.956;6.962;2022-11-21T11:41:18;5.50;;;1.60;;
5898;SDS011;2975;50.956;6.962;2022-11-21T11:44:22;2.90;;;1.20;;
5898;SDS011;2975;50.956;6.962;2022-11-21T11:47:23;1.63;;;1.13;;
5898;SDS011;2975;50.956;6.962;2022-11-21T11:55:12;2.13;;;0.67;;
5898;SDS011;2975;50.956;6.962;2022-11-21T11:57:44;3.63;;;1.60;;
5898;SDS011;2975;50.956;6.962;2022-11-21T12:05:25;1.90;;;0.80;;
5898;SDS011;2975;50.956;6.962;2022-11-21T12:07:58;0.97;;;0.70;;
5898;SDS011;2975;50.956;6.962;2022-11-21T12:10:33;6.23;;;1.13;;
5898;SDS011;2975;50.956;6.962;2022-11-21T12:13:25;2.97;;;1.20;;
5898;SDS011;2975;50.956;6.962;2022-11-21T12:15:52;2.87;;;1.07;;
5898;SDS011;2975;50.956;6.962;2022-11-21T12:18:27;3.90;;;1.30;;
5898;SDS011;2975;50.956;6.962;2022-11-21T12:21:08;7.20;;;1.20;;
5898;SDS011;2975;50.956;6.962;2022-11-21T12:23:53;3.83;;;1.30;;
5898;SDS011;2975;50.956;6.962;2022-11-21T12:35:25;1.73;;;0.90;;
5898;SDS011;2975;50.956;6.962;2022-11-21T12:43:34;10.17;;;1.40;;
5898;SDS011;2975;50.956;6.962;2022-11-21T12:46:24;6.77;;;1.37;;
5898;SDS011;2975;50.956;6.962;2022-11-21T12:49:02;4.27;;;1.20;;
5898;SDS011;2975;50.956;6.962;2022-11-21T12:52:12;1.90;;;1.20;;
5898;SDS011;2975;50.956;6.962;2022-11-21T12:57:55;3.20;;;0.93;;
5898;SDS011;2975;50.956;6.962;2022-11-21T13:06:13;4.40;;;1.10;;
5898;SDS011;2975;50.956;6.962;2022-11-21T13:08:46;7.40;;;1.20;;
5898;SDS011;2975;50.956;6.962;2022-11-21T13:16:55;13.63;;;2.30;;
5898;SDS011;2975;50.956;6.962;2022-11-21T13:22:27;2.80;;;1.27;;
5898;SDS011;2975;50.956;6.962;2022-11-21T13:25:46;2.33;;;0.97;;
5898;SDS011;2975;50.956;6.962;2022-11-21T13:30:46;1.70;;;1.03;;
5898;SDS011;2975;50.956;6.962;2022-11-21T13:38:25;3.57;;;1.20;;
5898;SDS011;2975;50.956;6.962;2022-11-21T13:40:50;5.03;;;1.10;;
5898;SDS011;2975;50.956;6.962;2022-11-21T13:43:35;6.70;;;0.90;;
5898;SDS011;2975;50.956;6.962;2022-11-21T13:46:01;3.97;;;1.23;;
5898;SDS011;2975;50.956;6.962;2022-11-21T13:55:58;2.27;;;1.13;;
5898;SDS011;2975;50.956;6.962;2022-11-21T14:04:33;2.93;;;1.10;;
5898;SDS011;2975;50.956;6.962;2022-11-21T14:07:30;5.77;;;2.03;;
5898;SDS011;2975;50.956;6.962;2022-11-21T14:09:58;4.00;;;1.40;;
5898;SDS011;2975;50.956;6.962;2022-11-21T14:12:28;3.97;;;1.20;;
5898;SDS011;2975;50.956;6.962;2022-11-21T14:19:56;1.13;;;1.00;;
5898;SDS011;2975;50.956;6.962;2022-11-21T14:22:25;2.83;;;1.27;;
5898;SDS011;2975;50.956;6.962;2022-11-21T14:24:58;2.77;;;1.13;;
5898;SDS011;2975;50.956;6.962;2022-11-21T14:27:30;3.63;;;0.93;;
5898;SDS011;2975;50.956;6.962;2022-11-21T14:29:57;4.13;;;1.30;;
5898;SDS011;2975;50.956;6.962;2022-11-21T14:32:29;2.27;;;0.87;;
5898;SDS011;2975;50.956;6.962;2022-11-21T14:35:20;3.97;;;1.00;;
5898;SDS011;2975;50.956;6.962;2022-11-21T14:37:47;5.83;;;1.67;;
5898;SDS011;2975;50.956;6.962;2022-11-21T14:40:22;3.20;;;1.00;;
5898;SDS011;2975;50.956;6.962;2022-11-21T14:42:48;3.07;;;1.00;;
5898;SDS011;2975;50.956;6.962;2022-11-21T14:45:15;3.33;;;1.30;;
5898;SDS011;2975;50.956;6.962;2022-11-21T14:47:47;1.63;;;1.03;;
5898;SDS011;2975;50.956;6.962;2022-11-21T14:50:21;4.17;;;1.40;;
5898;SDS011;2975;50.956;6.962;2022-11-21T14:52:48;5.83;;;1.30;;
5898;SDS011;2975;50.956;6.962;2022-11-21T14:55:21;1.57;;;1.00;;
5898;SDS011;2975;50.956;6.962;2022-11-21T14:57:52;3.63;;;1.20;;
5898;SDS011;2975;50.956;6.962;2022-11-21T15:00:20;3.43;;;1.07;;
5898;SDS011;2975;50.956;6.962;2022-11-21T15:02:50;2.53;;;1.20;;
5898;SDS011;2975;50.956;6.962;2022-11-21T15:05:18;4.30;;;1.10;;
5898;SDS011;2975;50.956;6.962;2022-11-21T15:07:47;3.67;;;1.10;;
5898;SDS011;2975;50.956;6.962;2022-11-21T15:10:17;4.00;;;1.13;;
5898;SDS011;2975;50.956;6.962;2022-11-21T15:15:55;3.90;;;1.07;;
5898;SDS011;2975;50.956;6.962;2022-11-21T15:18:10;3.22;;;1.23;;
5898;SDS011;2975;50.956;6.962;2022-11-21T15:20:42;3.17;;;1.30;;
5898;SDS011;2975;50.956;6.962;2022-11-21T15:23:54;4.70;;;1.30;;
5898;SDS011;2975;50.956;6.962;2022-11-21T15:26:23;2.37;;;1.27;;
5898;SDS011;2975;50.956;6.962;2022-11-21T15:28:53;2.87;;;1.23;;
5898;SDS011;2975;50.956;6.962;2022-11-21T15:31:20;2.67;;;1.17;;
5898;SDS011;2975;50.956;6.962;2022-11-21T15:33:54;2.03;;;1.23;;
5898;SDS011;2975;50.956;6.962;2022-11-21T15:36:28;6.67;;;1.83;;
5898;SDS011;2975;50.956;6.962;2022-11-21T15:38:55;2.13;;;1.20;;
5898;SDS011;2975;50.956;6.962;2022-11-21T15:41:31;3.73;;;0.90;;
5898;SDS011;2975;50.956;6.962;2022-11-21T15:51:21;3.93;;;1.63;;
5898;SDS011;2975;50.956;6.962;2022-11-21T15:53:49;6.73;;;1.33;;
5898;SDS011;2975;50.956;6.962;2022-11-21T15:56:17;5.03;;;1.57;;
5898;SDS011;2975;50.956;6.962;2022-11-21T15:58:45;3.27;;;1.50;;
5898;SDS011;2975;50.956;6.962;2022-11-21T16:01:15;3.83;;;1.70;;
5898;SDS011;2975;50.956;6.962;2022-11-21T16:03:43;2.43;;;1.40;;
5898;SDS011;2975;50.956;6.962;2022-11-21T16:06:10;5.43;;;1.30;;
5898;SDS011;2975;50.956;6.962;2022-11-21T16:08:36;2.17;;;1.10;;
5898;SDS011;2975;50.956;6.962;2022-11-21T16:11:02;3.63;;;1.47;;
5898;SDS011;2975;50.956;6.962;2022-11-21T16:13:27;6.63;;;1.40;;
5898;SDS011;2975;50.956;6.962;2022-11-21T16:15:53;4.73;;;1.57;;
5898;SDS011;2975;50.956;6.962;2022-11-21T16:18:19;4.40;;;1.50;;
5898;SDS011;2975;50.956;6.962;2022-11-21T16:20:44;2.93;;;1.37;;
5898;SDS011;2975;50.956;6.962;2022-11-21T16:23:10;5.03;;;2.10;;
5898;SDS011;2975;50.956;6.962;2022-11-21T16:25:36;6.10;;;1.80;;
5898;SDS011;2975;50.956;6.962;2022-11-21T16:28:02;3.60;;;1.60;;
5898;SDS011;2975;50.956;6.962;2022-11-21T16:30:28;6.60;;;1.87;;
5898;SDS011;2975;50.956;6.962;2022-11-21T16:32:54;2.83;;;1.47;;
5898;SDS011;2975;50.956;6.962;2022-11-21T16:35:23;5.00;;;2.20;;
5898;SDS011;2975;50.956;6.962;2022-11-21T16:37:48;4.43;;;1.50;;
5898;SDS011;2975;50.956;6.962;2022-11-21T16:40:16;5.03;;;1.80;;
5898;SDS011;2975;50.956;6.962;2022-11-21T16:42:42;5.50;;;1.70;;
5898;SDS011;2975;50.956;6.962;2022-11-21T16:45:08;5.20;;;2.00;;
5898;SDS011;2975;50.956;6.962;2022-11-21T16:47:34;5.57;;;1.50;;
5898;SDS011;2975;50.956;6.962;2022-11-21T16:50:01;5.77;;;2.00;;
5898;SDS011;2975;50.956;6.962;2022-11-21T16:52:30;5.80;;;1.77;;
5898;SDS011;2975;50.956;6.962;2022-11-21T16:54:57;8.27;;;1.37;;
5898;SDS011;2975;50.956;6.962;2022-11-21T16:57:25;4.10;;;1.63;;
5898;SDS011;2975;50.956;6.962;2022-11-21T16:59:51;4.40;;;1.90;;
5898;SDS011;2975;50.956;6.962;2022-11-21T17:02:17;6.23;;;1.80;;
5898;SDS011;2975;50.956;6.962;2022-11-21T17:04:42;3.97;;;2.00;;
5898;SDS011;2975;50.956;6.962;2022-11-21T17:07:08;6.10;;;1.80;;
5898;SDS011;2975;50.956;6.962;2022-11-21T17:09:33;3.23;;;2.03;;
5898;SDS011;2975;50.956;6.962;2022-11-21T17:11:59;9.27;;;1.90;;